Gapville, Kentucky
Current Conditions -  °F | °C
As of 3:35 AM on Friday 21 Nov 2014 (Local Time) from KSJS Reporting Station
Clear Clear  
Wind Chill: 25°   Ceiling: Unl
Heat Index: 25°   Visibility: 10mi
Dew Point: 17°   Wind: 3mph
Humidity: 71%   Direction: 270°W
Pressure: 30.35"   Gusts: NA
Location:  37.63°N, 82.96°W
Report Text: KSJS 210835Z AUTO 27003KT 10SM CLR M04/M08 A3035 RMK AO2 T10371083
Loading
Personal Weather Stations






























Interactive Weather Map New forecast layout! Learn more

10-Day Weather Forecast

Advertisements
Track Severe Weather on mobile